Time;durP1;ratioP1;P1;durP2;ratioP2;P2;SDS_P1;SDS_P2;PMS_P1;PMS_P2;Temp;Humidity;BMP_temperature;BMP_pressure;BME280_temperature;BME280_humidity;BME280_pressure;Samples;Min_cycle;Max_cycle;Signal;HPM_P1;HPM_P2
2022/12/08 00:01:32;;;;;;;2.03;1.93;;;-0.50;99.90;-1.40;99034;;;;564136;251;24131;-77
2022/12/08 00:04:00;;;;;;;1.97;1.87;;;-0.50;99.90;-1.40;99038;;;;563934;251;24095;-73
2022/12/08 00:09:22;;;;;;;2.27;2.07;;;-0.50;99.90;-1.40;99040;;;;572006;251;24108;-74
2022/12/08 00:11:58;;;;;;;2.70;2.50;;;-0.50;99.90;-1.40;99035;;;;564203;251;24113;-76
2022/12/08 00:14:32;;;;;;;2.40;2.30;;;-0.50;99.90;-1.40;99044;;;;564080;251;24131;-75
2022/12/08 00:17:00;;;;;;;2.17;1.87;;;-0.40;99.90;-1.30;99042;;;;564502;251;24145;-74
2022/12/08 00:19:31;;;;;;;2.33;2.23;;;-0.50;99.90;-1.40;99043;;;;564205;251;25159;-80
2022/12/08 00:21:59;;;;;;;2.40;2.20;;;-0.50;99.90;-1.40;99043;;;;563830;251;24153;-79
2022/12/08 00:24:28;;;;;;;2.50;2.40;;;-0.50;99.90;-1.40;99050;;;;572255;251;24139;-80
2022/12/08 00:26:52;;;;;;;2.70;2.50;;;-0.50;99.90;-1.40;99051;;;;564047;249;24115;-77
2022/12/08 00:29:20;;;;;;;2.57;2.33;;;-0.50;99.90;-1.40;99049;;;;573985;250;24111;-74
2022/12/08 00:31:48;;;;;;;2.43;2.33;;;-0.50;99.90;-1.40;99052;;;;565424;251;24122;-80
2022/12/08 00:34:16;;;;;;;3.13;2.83;;;-0.50;99.90;-1.40;99053;;;;565233;251;24157;-80
2022/12/08 00:36:47;;;;;;;2.50;2.40;;;-0.50;99.90;-1.50;99052;;;;573001;251;24118;-77
2022/12/08 00:39:11;;;;;;;2.50;2.30;;;-0.60;99.90;-1.50;99055;;;;564817;251;24122;-78
2022/12/08 00:44:26;;;;;;;2.60;2.50;;;-0.70;99.90;-1.60;99064;;;;572802;251;24213;-76
2022/12/08 00:46:54;;;;;;;2.70;2.60;;;-0.70;99.90;-1.70;99067;;;;573181;250;24113;-76
2022/12/08 00:49:22;;;;;;;2.67;2.53;;;-0.70;99.90;-1.70;99063;;;;564707;251;24125;-78
2022/12/08 00:51:53;;;;;;;3.10;2.90;;;-0.80;99.90;-1.70;99079;;;;564631;251;24121;-74
2022/12/08 00:54:18;;;;;;;2.90;2.70;;;-0.80;99.90;-1.70;99072;;;;564481;251;24122;-75
2022/12/08 00:56:45;;;;;;;2.70;2.50;;;-0.80;99.90;-1.80;99081;;;;564746;251;24126;-71
2022/12/08 00:59:13;;;;;;;2.87;2.77;;;-0.90;99.90;-1.80;99086;;;;564671;251;24102;-73
2022/12/08 01:01:41;;;;;;;3.90;2.70;;;-0.90;99.90;-1.80;99083;;;;564634;251;24106;-80
2022/12/08 01:04:09;;;;;;;3.60;3.30;;;-0.90;99.90;-1.80;99080;;;;564343;251;24219;-80
2022/12/08 01:06:37;;;;;;;3.33;3.10;;;-0.90;99.90;-1.80;99087;;;;564192;251;24213;-76
2022/12/08 01:09:05;;;;;;;3.30;3.00;;;-0.90;99.90;-1.90;99095;;;;572762;251;24162;-77
2022/12/08 01:11:37;;;;;;;3.40;3.20;;;-0.90;99.90;-1.90;99093;;;;563523;251;24107;-75
2022/12/08 01:14:04;;;;;;;3.33;3.07;;;-1.00;99.90;-1.90;99104;;;;571480;251;24137;-73
2022/12/08 01:16:30;;;;;;;3.70;3.30;;;-1.00;99.90;-2.00;99106;;;;563942;251;24148;-77
2022/12/08 01:18:58;;;;;;;3.20;3.00;;;-1.00;99.90;-2.00;99109;;;;563975;251;24489;-77
2022/12/08 01:21:26;;;;;;;3.60;3.40;;;-1.00;99.90;-2.00;99105;;;;563999;251;24131;-78
2022/12/08 01:23:54;;;;;;;3.47;3.27;;;-1.10;99.90;-2.00;99107;;;;564298;251;24186;-78
2022/12/08 01:26:22;;;;;;;3.60;3.30;;;-1.10;99.90;-2.00;99119;;;;572825;251;24135;-75
2022/12/08 01:28:50;;;;;;;4.00;3.43;;;-1.10;99.90;-2.00;99116;;;;564374;251;24109;-78
2022/12/08 01:31:18;;;;;;;4.10;3.10;;;-1.10;99.90;-2.00;99122;;;;572614;251;24152;-74
2022/12/08 01:33:46;;;;;;;3.50;3.00;;;-1.10;99.90;-2.10;99118;;;;564052;251;24170;-73
2022/12/08 01:36:25;;;;;;;3.17;2.97;;;-1.10;99.90;-2.10;99108;;;;572942;251;24129;-78
2022/12/08 01:38:53;;;;;;;3.43;3.10;;;-1.20;99.90;-2.20;99116;;;;564548;250;24112;-75
2022/12/08 01:41:25;;;;;;;3.47;3.03;;;-1.20;99.90;-2.20;99122;;;;565301;250;24136;-80
2022/12/08 01:44:12;;;;;;;3.80;3.50;;;-1.30;99.90;-2.20;99116;;;;564613;251;24116;-79
2022/12/08 01:46:36;;;;;;;4.53;3.57;;;-1.30;99.90;-2.20;99118;;;;564650;251;24110;-75
2022/12/08 01:49:22;;;;;;;3.90;3.60;;;-1.30;99.90;-2.30;99117;;;;564070;250;24122;-80
2022/12/08 01:51:59;;;;;;;3.87;3.57;;;-1.30;99.90;-2.20;99116;;;;565028;250;24111;-81
2022/12/08 01:54:27;;;;;;;3.80;3.50;;;-1.30;99.90;-2.20;99121;;;;564156;251;24130;-75
2022/12/08 01:57:00;;;;;;;3.90;3.60;;;-1.30;99.90;-2.30;99129;;;;564432;251;24135;-76
2022/12/08 01:59:28;;;;;;;4.30;3.90;;;-1.30;99.90;-2.20;99132;;;;563855;251;24130;-75
2022/12/08 02:02:01;;;;;;;3.90;3.60;;;-1.30;99.90;-2.20;99140;;;;564274;251;24107;-74
2022/12/08 02:04:25;;;;;;;4.40;4.00;;;-1.30;99.90;-2.20;99135;;;;572335;251;24148;-80
2022/12/08 02:06:53;;;;;;;4.10;3.73;;;-1.20;99.90;-2.20;99128;;;;564385;251;24169;-73
2022/12/08 02:09:21;;;;;;;4.43;3.53;;;-1.20;99.90;-2.10;99132;;;;563501;251;24108;-75
2022/12/08 02:11:49;;;;;;;3.83;3.53;;;-1.10;99.90;-2.00;99126;;;;573149;251;24169;-74
2022/12/08 02:14:17;;;;;;;3.47;3.27;;;-1.10;99.90;-2.10;99132;;;;564216;251;24141;-82
2022/12/08 02:16:53;;;;;;;5.03;3.30;;;-1.10;99.90;-2.10;99125;;;;564014;251;24134;-76
2022/12/08 02:19:36;;;;;;;3.60;3.30;;;-1.10;99.90;-2.10;99131;;;;572328;251;24120;-79
2022/12/08 02:22:07;;;;;;;3.90;3.60;;;-1.10;99.90;-2.00;99132;;;;564004;251;24140;-77
2022/12/08 02:24:47;;;;;;;3.90;3.30;;;-1.10;99.90;-2.00;99124;;;;564057;251;24126;-78
2022/12/08 02:27:58;;;;;;;3.97;3.43;;;-1.10;99.90;-2.00;99131;;;;570820;251;24155;-74
2022/12/08 02:30:29;;;;;;;4.07;3.77;;;-1.00;99.90;-2.00;99132;;;;564612;251;24129;-79
2022/12/08 02:33:37;;;;;;;3.90;3.60;;;-1.00;99.90;-2.00;99127;;;;563922;251;24127;-83
2022/12/08 02:36:29;;;;;;;3.73;3.43;;;-1.00;99.90;-1.90;99139;;;;563858;251;25137;-82
2022/12/08 02:39:03;;;;;;;4.87;3.97;;;-1.00;99.90;-1.90;99142;;;;572516;251;25141;-83
2022/12/08 02:41:52;;;;;;;3.67;3.30;;;-0.90;99.90;-1.80;99151;;;;569184;246;24178;-85
2022/12/08 02:44:29;;;;;;;3.30;3.10;;;-0.80;99.90;-1.80;99146;;;;563895;251;25176;-84
2022/12/08 02:47:12;;;;;;;4.83;3.50;;;-0.80;99.90;-1.60;99143;;;;564201;251;24130;-84
2022/12/08 02:49:40;;;;;;;3.43;3.13;;;-0.70;99.90;-1.50;99144;;;;572105;251;24136;-76
2022/12/08 02:52:08;;;;;;;3.70;3.40;;;-0.60;99.90;-1.40;99155;;;;565788;250;24143;-84
2022/12/08 02:54:36;;;;;;;3.50;3.30;;;-0.40;99.90;-1.30;99154;;;;563845;250;24103;-84
2022/12/08 02:57:25;;;;;;;3.27;2.97;;;-0.40;99.90;-1.30;99162;;;;573663;250;24108;-75
2022/12/08 03:00:02;;;;;;;3.63;3.33;;;-0.30;99.90;-1.20;99160;;;;558925;251;24193;-73
2022/12/08 03:02:57;;;;;;;3.67;3.37;;;-0.30;99.90;-1.20;99163;;;;563906;251;24100;-85
2022/12/08 03:05:56;;;;;;;3.20;3.00;;;-0.20;99.90;-1.20;99156;;;;564842;251;24127;-74
2022/12/08 03:08:51;;;;;;;3.07;2.87;;;-0.30;99.90;-1.20;99157;;;;564691;251;24101;-71
2022/12/08 03:11:27;;;;;;;2.80;2.60;;;-0.30;99.90;-1.30;99158;;;;564568;250;24090;-76
2022/12/08 03:13:55;;;;;;;2.70;2.60;;;-0.30;99.90;-1.40;99158;;;;564195;251;24111;-72
2022/12/08 03:16:27;;;;;;;2.57;2.47;;;-0.50;99.90;-1.40;99155;;;;564517;251;24176;-73
2022/12/08 03:21:33;;;;;;;2.57;2.47;;;-0.50;99.90;-1.50;99149;;;;584093;246;24090;-75
2022/12/08 03:24:05;;;;;;;2.50;2.40;;;-0.50;99.90;-1.40;99148;;;;580564;246;24058;-77
2022/12/08 03:26:38;;;;;;;2.60;2.40;;;-0.50;99.90;-1.40;99152;;;;581825;246;24037;-83
2022/12/08 03:29:06;;;;;;;2.37;2.17;;;-0.50;99.90;-1.40;99157;;;;582369;246;24113;-74
2022/12/08 03:31:34;;;;;;;2.57;2.37;;;-0.50;99.90;-1.50;99161;;;;582147;243;24137;-74
2022/12/08 03:34:02;;;;;;;2.47;2.30;;;-0.50;99.90;-1.50;99157;;;;582124;243;24063;-73
2022/12/08 03:36:30;;;;;;;2.00;1.90;;;-0.50;99.90;-1.50;99163;;;;584766;243;24050;-73
2022/12/08 03:39:01;;;;;;;2.27;2.07;;;-0.60;99.90;-1.50;99168;;;;581733;246;24076;-79
2022/12/08 03:41:27;;;;;;;1.57;1.53;;;-0.60;99.90;-1.60;99164;;;;572970;246;24060;-74
2022/12/08 03:43:54;;;;;;;2.00;1.90;;;-0.70;99.90;-1.70;99163;;;;581528;243;24079;-81
2022/12/08 03:46:22;;;;;;;2.00;1.90;;;-0.70;99.90;-1.80;99165;;;;582256;243;24069;-75
2022/12/08 03:48:50;;;;;;;1.90;1.80;;;-0.80;99.90;-1.80;99167;;;;582204;243;24172;-74
2022/12/08 03:51:18;;;;;;;1.90;1.80;;;-0.80;99.90;-1.80;99168;;;;584818;243;24124;-72
2022/12/08 03:53:46;;;;;;;1.80;1.70;;;-0.90;99.90;-1.80;99169;;;;582171;243;24052;-77
2022/12/08 03:56:29;;;;;;;2.33;1.60;;;-0.90;99.90;-1.80;99173;;;;576003;246;24077;-73
2022/12/08 03:58:59;;;;;;;2.07;1.90;;;-0.90;99.90;-1.80;99175;;;;580206;246;24043;-73
2022/12/08 04:01:25;;;;;;;2.40;2.20;;;-0.90;99.90;-1.80;99172;;;;580318;244;24073;-74
2022/12/08 04:03:53;;;;;;;2.20;2.10;;;-0.90;99.90;-1.80;99168;;;;581743;245;24060;-73
2022/12/08 04:06:20;;;;;;;1.97;1.87;;;-0.90;99.90;-1.80;99175;;;;585733;242;24125;-76
2022/12/08 04:08:48;;;;;;;2.30;2.17;;;-0.90;99.90;-1.80;99167;;;;583202;242;24070;-74
2022/12/08 04:11:19;;;;;;;2.13;2.03;;;-0.90;99.90;-1.80;99171;;;;583323;242;25096;-73
2022/12/08 04:13:48;;;;;;;2.77;2.37;;;-0.80;99.90;-1.70;99185;;;;578485;243;24087;-73
2022/12/08 04:16:17;;;;;;;2.63;2.43;;;-0.70;99.90;-1.60;99175;;;;574092;243;24077;-74
2022/12/08 04:18:47;;;;;;;2.70;2.53;;;-0.80;99.90;-1.60;99178;;;;574652;243;24069;-74
2022/12/08 04:21:13;;;;;;;2.40;2.20;;;-0.70;99.90;-1.70;99179;;;;573869;243;24080;-73
2022/12/08 04:23:41;;;;;;;2.50;2.30;;;-0.70;99.90;-1.60;99182;;;;573879;243;24050;-74
2022/12/08 04:26:08;;;;;;;2.30;2.20;;;-0.70;99.90;-1.60;99174;;;;573926;243;24151;-74
2022/12/08 04:28:36;;;;;;;2.23;2.13;;;-0.70;99.90;-1.70;99174;;;;573794;243;24088;-74
2022/12/08 04:31:04;;;;;;;2.10;1.90;;;-0.70;99.90;-1.60;99183;;;;572400;248;24129;-73
2022/12/08 04:33:33;;;;;;;2.07;1.90;;;-0.70;99.90;-1.60;99183;;;;579078;247;24140;-73
2022/12/08 04:36:00;;;;;;;2.17;2.07;;;-0.70;99.90;-1.60;99182;;;;571486;247;24133;-74
2022/12/08 04:38:28;;;;;;;2.20;2.00;;;-0.60;99.90;-1.60;99187;;;;572485;250;24132;-73
2022/12/08 04:40:57;;;;;;;2.53;2.33;;;-0.60;99.90;-1.60;99185;;;;571800;248;24100;-73
2022/12/08 04:43:25;;;;;;;1.93;1.83;;;-0.70;99.90;-1.60;99186;;;;563171;248;24122;-73
2022/12/08 04:45:52;;;;;;;2.20;2.10;;;-0.60;99.90;-1.60;99189;;;;563002;248;24093;-73
2022/12/08 04:48:20;;;;;;;2.20;2.10;;;-0.70;99.90;-1.60;99187;;;;563467;248;24083;-71
2022/12/08 04:50:48;;;;;;;2.47;2.27;;;-0.70;99.90;-1.60;99192;;;;563049;248;24115;-72
2022/12/08 04:53:16;;;;;;;2.10;2.00;;;-0.70;99.90;-1.70;99191;;;;563001;248;25156;-72
2022/12/08 04:55:47;;;;;;;2.03;1.93;;;-0.70;99.90;-1.70;99198;;;;563074;248;24134;-73
2022/12/08 04:58:15;;;;;;;2.20;2.10;;;-0.80;99.90;-1.70;99198;;;;568468;248;24103;-73
2022/12/08 05:00:43;;;;;;;2.27;2.17;;;-0.80;99.90;-1.60;99196;;;;563091;248;24093;-73
2022/12/08 05:03:11;;;;;;;3.23;2.43;;;-0.70;99.90;-1.50;99204;;;;577107;248;24072;-72
2022/12/08 05:05:42;;;;;;;2.73;2.53;;;-0.50;99.90;-1.40;99215;;;;577057;248;24096;-72
2022/12/08 05:08:08;;;;;;;2.07;1.97;;;-0.30;99.90;-1.30;99206;;;;566401;248;24102;-73
2022/12/08 05:10:36;;;;;;;2.03;1.83;;;-0.40;99.90;-1.20;99213;;;;577038;248;24077;-73
2022/12/08 05:13:04;;;;;;;4.53;2.50;;;-0.30;99.90;-1.10;99222;;;;563105;248;24140;-74
2022/12/08 05:15:33;;;;;;;2.23;2.13;;;-0.20;99.90;-1.10;99212;;;;564433;247;24085;-76
2022/12/08 05:18:03;;;;;;;2.20;2.10;;;-0.20;99.90;-1.10;99227;;;;564157;248;24101;-72
2022/12/08 05:20:29;;;;;;;2.40;2.30;;;-0.10;99.90;-1.10;99217;;;;563943;248;24094;-74
2022/12/08 05:22:57;;;;;;;2.60;2.40;;;-0.10;99.90;-1.00;99220;;;;563811;248;24072;-75
2022/12/08 05:25:25;;;;;;;2.03;1.93;;;-0.10;99.90;-1.00;99226;;;;563723;248;24076;-76
2022/12/08 05:27:53;;;;;;;2.10;1.90;;;-0.10;99.90;-0.90;99231;;;;563496;248;24090;-74
2022/12/08 05:30:21;;;;;;;3.73;2.20;;;0.00;99.90;-0.90;99225;;;;563661;248;24081;-74
2022/12/08 05:32:49;;;;;;;2.17;1.93;;;0.10;99.90;-0.80;99230;;;;572770;248;24144;-74
2022/12/08 05:35:17;;;;;;;2.30;2.10;;;0.10;99.90;-0.70;99233;;;;563716;248;24100;-73
2022/12/08 05:37:45;;;;;;;2.50;2.30;;;0.30;99.90;-0.60;99234;;;;552745;255;24136;-74
2022/12/08 05:40:13;;;;;;;2.70;2.50;;;0.30;99.90;-0.60;99229;;;;567049;249;24125;-77
2022/12/08 05:42:41;;;;;;;2.50;2.40;;;0.30;99.90;-0.60;99227;;;;567334;249;24092;-81
2022/12/08 05:45:09;;;;;;;2.33;1.70;;;0.40;99.90;-0.60;99234;;;;567443;249;24113;-76
2022/12/08 05:47:37;;;;;;;2.03;1.83;;;0.40;99.90;-0.60;99228;;;;575980;249;24126;-77
2022/12/08 05:50:05;;;;;;;2.00;1.90;;;0.30;99.90;-0.70;99236;;;;567125;249;24076;-79
2022/12/08 05:52:33;;;;;;;2.60;2.17;;;0.30;99.90;-0.80;99231;;;;575441;249;24123;-79
2022/12/08 05:55:01;;;;;;;2.37;2.13;;;0.20;99.90;-0.80;99232;;;;566882;249;24105;-76
2022/12/08 05:57:29;;;;;;;2.00;1.90;;;0.10;99.90;-0.90;99235;;;;566760;249;24112;-77
2022/12/08 05:59:58;;;;;;;2.63;2.43;;;0.00;99.90;-1.00;99245;;;;566891;249;24086;-77
2022/12/08 06:02:25;;;;;;;3.47;2.40;;;-0.10;99.90;-1.10;99251;;;;566660;249;24090;-79
2022/12/08 06:04:53;;;;;;;2.60;2.40;;;-0.20;99.90;-1.10;99257;;;;575694;249;24095;-73
2022/12/08 06:07:21;;;;;;;2.83;2.53;;;-0.20;99.90;-1.00;99259;;;;566572;249;24123;-77
2022/12/08 06:09:49;;;;;;;2.27;2.00;;;-0.10;99.90;-1.00;99255;;;;566409;249;24087;-79
2022/12/08 06:12:20;;;;;;;2.57;1.73;;;-0.10;99.90;-1.00;99258;;;;566414;249;24080;-76
2022/12/08 06:14:46;;;;;;;3.00;2.03;;;-0.10;99.90;-1.10;99258;;;;566151;249;24094;-74
2022/12/08 06:17:14;;;;;;;2.43;1.80;;;-0.10;99.90;-1.20;99259;;;;566512;249;24127;-77
2022/12/08 06:19:42;;;;;;;1.87;1.53;;;-0.20;99.90;-1.30;99268;;;;566369;249;24111;-79
2022/12/08 06:22:11;;;;;;;2.27;2.13;;;-0.40;99.90;-1.30;99274;;;;566263;249;24078;-80
2022/12/08 06:24:38;;;;;;;2.37;2.07;;;-0.40;99.90;-1.40;99274;;;;566387;249;24077;-77
2022/12/08 06:27:06;;;;;;;4.10;2.03;;;-0.50;99.90;-1.50;99264;;;;567791;249;24082;-77
2022/12/08 06:29:34;;;;;;;2.33;2.00;;;-0.50;99.90;-1.60;99277;;;;567430;249;24073;-72
2022/12/08 06:32:02;;;;;;;2.43;1.70;;;-0.60;99.90;-1.70;99274;;;;567099;249;24102;-81
2022/12/08 06:34:30;;;;;;;2.37;2.17;;;-0.70;99.90;-1.70;99279;;;;567170;249;24076;-83
2022/12/08 06:36:58;;;;;;;4.30;1.80;;;-0.80;99.90;-1.70;99290;;;;566809;249;24112;-83
2022/12/08 06:39:26;;;;;;;2.80;1.90;;;-0.70;99.90;-1.60;99277;;;;561800;249;24073;-85
2022/12/08 06:44:41;;;;;;;2.60;2.40;;;-0.40;99.90;-1.30;99296;;;;567012;249;24088;-80
2022/12/08 06:47:09;;;;;;;5.13;4.50;;;-0.40;99.90;-1.10;99306;;;;563603;249;24158;-78
2022/12/08 06:49:37;;;;;;;4.67;3.93;;;-0.30;99.90;-1.10;99297;;;;566580;249;24077;-79
2022/12/08 06:52:04;;;;;;;5.40;3.47;;;-0.20;99.90;-1.00;99292;;;;566690;249;24086;-82
2022/12/08 06:54:33;;;;;;;4.37;2.80;;;0.00;99.90;-0.90;99299;;;;561792;249;24142;-69
2022/12/08 06:57:03;;;;;;;7.13;2.60;;;0.00;99.90;-0.80;99297;;;;566707;249;24092;-72
2022/12/08 06:59:30;;;;;;;4.17;2.97;;;0.10;99.90;-0.70;99311;;;;566593;249;24111;-71
2022/12/08 07:01:58;;;;;;;4.03;3.30;;;0.20;99.90;-0.60;99295;;;;561403;249;35287;-73
2022/12/08 07:04:26;;;;;;;2.33;2.07;;;0.30;99.90;-0.60;99306;;;;566442;249;24085;-72
2022/12/08 07:06:54;;;;;;;1.97;1.87;;;0.40;99.90;-0.50;99312;;;;566250;249;24061;-75
2022/12/08 07:09:22;;;;;;;8.43;6.47;;;0.40;99.90;-0.50;99324;;;;566404;249;24130;-72
2022/12/08 07:11:50;;;;;;;21.43;15.33;;;0.50;99.90;-0.40;99331;;;;566348;249;24076;-74
2022/12/08 07:14:22;;;;;;;20.10;15.50;;;0.50;99.90;-0.40;99333;;;;566857;249;24128;-74
2022/12/08 07:16:46;;;;;;;5.23;4.83;;;0.60;99.90;-0.30;99332;;;;567104;249;24090;-79
2022/12/08 07:19:13;;;;;;;6.07;4.77;;;0.60;99.90;-0.30;99339;;;;567091;249;24076;-75
2022/12/08 07:21:42;;;;;;;3.80;3.40;;;0.60;99.90;-0.30;99338;;;;567035;249;24112;-72
2022/12/08 07:24:10;;;;;;;2.20;2.00;;;0.60;99.90;-0.40;99348;;;;567082;249;24129;-72
2022/12/08 07:26:38;;;;;;;1.73;1.50;;;0.60;99.90;-0.40;99347;;;;567954;249;24040;-72
2022/12/08 07:29:10;;;;;;;2.00;1.90;;;0.50;99.90;-0.40;99342;;;;567616;249;24088;-73
2022/12/08 07:31:34;;;;;;;2.83;2.50;;;0.50;99.90;-0.50;99347;;;;567325;249;24131;-73
2022/12/08 07:34:02;;;;;;;2.30;2.20;;;0.50;99.90;-0.60;99338;;;;567456;249;24072;-74
2022/12/08 07:36:31;;;;;;;2.47;2.10;;;0.40;99.90;-0.60;99345;;;;568339;247;24099;-78
2022/12/08 07:38:58;;;;;;;2.20;2.03;;;0.30;99.90;-0.70;99340;;;;568584;249;24059;-78
2022/12/08 07:41:25;;;;;;;5.17;3.13;;;0.30;99.90;-0.80;99354;;;;569425;249;24083;-75
2022/12/08 07:43:53;;;;;;;4.37;3.07;;;0.20;99.90;-0.80;99351;;;;564332;249;24103;-72
2022/12/08 07:46:21;;;;;;;2.78;2.45;;;0.10;99.90;-0.80;99354;;;;563190;249;35234;-73
2022/12/08 07:48:49;;;;;;;5.73;4.57;;;0.10;99.90;-0.90;99348;;;;573594;249;24128;-73
2022/12/08 07:51:17;;;;;;;6.67;4.17;;;0.10;99.90;-0.90;99347;;;;567332;249;24072;-74
2022/12/08 07:53:45;;;;;;;2.93;2.60;;;0.10;99.90;-0.90;99351;;;;567247;249;24079;-72
2022/12/08 07:56:13;;;;;;;2.43;2.20;;;0.00;99.90;-0.90;99360;;;;563040;249;24171;-72
2022/12/08 07:58:44;;;;;;;6.57;2.67;;;0.00;99.90;-1.00;99369;;;;563096;249;24077;-72
2022/12/08 08:01:24;;;;;;;4.07;2.40;;;0.00;99.90;-1.00;99364;;;;566984;249;24136;-71
2022/12/08 08:03:52;;;;;;;3.23;2.47;;;-0.10;99.90;-1.00;99374;;;;567696;249;24075;-78
2022/12/08 08:06:19;;;;;;;5.17;3.27;;;-0.10;99.90;-1.10;99378;;;;562194;249;24141;-77
2022/12/08 08:08:47;;;;;;;4.10;3.70;;;-0.20;99.90;-1.00;99375;;;;567540;249;24081;-77
2022/12/08 08:11:15;;;;;;;3.73;3.00;;;-0.20;99.90;-1.00;99370;;;;567364;249;24072;-80
2022/12/08 08:13:44;;;;;;;4.23;3.83;;;-0.10;99.90;-1.00;99366;;;;567173;249;24124;-76
2022/12/08 08:16:13;;;;;;;4.33;3.37;;;0.00;99.90;-0.90;99362;;;;566838;249;24110;-74
2022/12/08 08:18:44;;;;;;;5.33;4.53;;;-0.10;99.90;-0.80;99362;;;;566672;249;24104;-84
2022/12/08 08:21:08;;;;;;;11.83;8.77;;;0.10;99.90;-0.60;99373;;;;566318;249;24084;-79
2022/12/08 08:23:36;;;;;;;10.07;6.83;;;0.30;99.90;-0.40;99360;;;;566353;249;24095;-75
2022/12/08 08:26:05;;;;;;;9.77;6.03;;;0.70;99.90;-0.20;99367;;;;566484;249;24132;-80
2022/12/08 08:28:37;;;;;;;7.77;6.20;;;0.70;99.90;-0.10;99367;;;;561486;249;24068;-80
2022/12/08 08:31:01;;;;;;;9.30;7.43;;;0.80;99.90;0.00;99372;;;;566308;249;24093;-83
2022/12/08 08:33:29;;;;;;;4.73;4.30;;;0.90;99.90;0.00;99376;;;;566453;249;24084;-80
2022/12/08 08:35:57;;;;;;;3.70;3.40;;;0.90;99.90;0.00;99380;;;;566878;249;24074;-82
2022/12/08 08:38:25;;;;;;;3.47;3.13;;;0.90;99.90;0.00;99394;;;;566713;249;24087;-79
2022/12/08 08:40:52;;;;;;;3.17;2.83;;;0.90;99.90;0.00;99400;;;;566570;249;25129;-80
2022/12/08 08:43:29;;;;;;;4.53;3.47;;;0.90;99.90;0.00;99407;;;;566566;249;24073;-81
2022/12/08 08:46:02;;;;;;;3.37;2.77;;;0.90;99.90;0.00;99414;;;;566395;249;24100;-72
2022/12/08 08:48:26;;;;;;;5.10;2.83;;;0.90;99.90;0.00;99429;;;;561604;248;24087;-78
2022/12/08 08:50:54;;;;;;;2.80;2.57;;;0.90;99.90;0.00;99430;;;;567511;249;25244;-75
2022/12/08 08:53:22;;;;;;;2.83;2.60;;;0.90;99.90;0.00;99431;;;;567316;249;24083;-73
2022/12/08 08:55:53;;;;;;;2.67;2.47;;;0.90;99.90;0.00;99428;;;;562220;249;24098;-72
2022/12/08 08:58:18;;;;;;;2.93;2.67;;;1.00;99.90;0.10;99437;;;;561693;249;24103;-76
2022/12/08 09:00:46;;;;;;;5.87;3.47;;;1.00;99.90;0.20;99434;;;;566904;249;24099;-72
2022/12/08 09:03:14;;;;;;;3.53;3.23;;;1.10;99.90;0.20;99436;;;;566801;249;24091;-73
2022/12/08 09:05:42;;;;;;;4.20;3.40;;;1.10;99.90;0.30;99442;;;;566926;249;24097;-72
2022/12/08 09:08:10;;;;;;;5.00;2.50;;;1.20;99.90;0.30;99438;;;;566584;249;24073;-73
2022/12/08 09:10:38;;;;;;;4.32;2.90;;;1.30;99.90;0.40;99442;;;;561659;249;35264;-74
2022/12/08 09:13:06;;;;;;;4.13;2.53;;;1.30;99.90;0.40;99447;;;;566625;249;24106;-73
2022/12/08 09:15:34;;;;;;;2.90;2.60;;;1.30;99.90;0.50;99436;;;;566608;249;24134;-74
2022/12/08 09:18:05;;;;;;;4.80;2.43;;;1.40;99.90;0.50;99438;;;;566692;249;24086;-73
2022/12/08 09:20:30;;;;;;;5.50;2.97;;;1.40;99.90;0.60;99438;;;;574834;249;24151;-76
2022/12/08 09:22:59;;;;;;;4.13;3.23;;;1.50;99.90;0.60;99430;;;;566696;249;24122;-75
2022/12/08 09:25:29;;;;;;;2.90;2.70;;;1.50;99.90;0.70;99415;;;;566441;249;24088;-74
2022/12/08 09:27:58;;;;;;;3.80;2.93;;;1.70;99.90;0.80;99423;;;;561096;249;24099;-77
2022/12/08 09:30:23;;;;;;;4.40;3.10;;;1.70;99.90;0.90;99425;;;;566238;249;24097;-73
2022/12/08 09:32:52;;;;;;;5.73;5.10;;;1.80;99.90;1.00;99417;;;;566301;249;24094;-73
2022/12/08 09:35:20;;;;;;;6.33;4.40;;;1.80;99.90;1.10;99421;;;;566450;249;24094;-81
2022/12/08 09:37:48;;;;;;;15.07;10.03;;;1.90;99.90;1.20;99425;;;;566689;249;24077;-73
2022/12/08 09:40:19;;;;;;;14.77;10.43;;;2.10;99.90;1.30;99405;;;;575293;249;24113;-85
2022/12/08 09:43:02;;;;;;;8.70;7.40;;;2.20;99.90;1.50;99403;;;;574679;249;24217;-83
2022/12/08 09:45:26;;;;;;;6.97;5.50;;;2.30;99.90;1.60;99410;;;;565216;249;24092;-85
2022/12/08 09:48:09;;;;;;;5.73;5.00;;;2.50;99.90;1.60;99405;;;;574759;249;24100;-82
2022/12/08 09:50:55;;;;;;;5.47;4.80;;;2.50;99.90;1.60;99410;;;;561670;249;24089;-84
2022/12/08 09:53:47;;;;;;;7.87;5.27;;;2.50;99.90;1.50;99397;;;;566188;249;24093;-82
2022/12/08 09:56:24;;;;;;;7.17;5.03;;;2.40;99.90;1.50;99393;;;;566351;249;24109;-79
2022/12/08 09:59:16;;;;;;;8.90;5.17;;;2.40;99.90;1.50;99391;;;;561584;249;24094;-79
2022/12/08 10:01:44;;;;;;;9.93;5.07;;;2.40;99.90;1.50;99391;;;;567793;249;24099;-81
2022/12/08 10:04:31;;;;;;;6.57;4.90;;;2.40;99.90;1.50;99396;;;;567397;249;24169;-81
2022/12/08 10:07:06;;;;;;;9.40;4.93;;;2.40;99.90;1.60;99396;;;;567309;249;24080;-77
2022/12/08 10:09:46;;;;;;;6.90;4.33;;;2.40;99.90;1.60;99397;;;;566613;249;24089;-74
2022/12/08 10:12:16;;;;;;;5.53;4.63;;;2.50;99.90;1.70;99399;;;;566982;249;24103;-74
2022/12/08 10:14:47;;;;;;;6.20;4.50;;;2.50;99.90;1.70;99399;;;;566143;249;24175;-74
2022/12/08 10:17:33;;;;;;;6.97;4.57;;;2.50;99.90;1.70;99394;;;;561097;249;24153;-75
2022/12/08 10:20:12;;;;;;;6.50;4.90;;;2.60;99.90;1.70;99397;;;;558710;249;24170;-78
2022/12/08 10:22:40;;;;;;;5.07;4.47;;;2.60;99.90;1.80;99394;;;;566616;249;24101;-76
2022/12/08 10:25:18;;;;;;;5.97;4.60;;;2.70;99.90;1.80;99388;;;;566539;249;24115;-73
2022/12/08 10:27:49;;;;;;;7.50;5.43;;;2.70;99.90;1.90;99377;;;;564985;249;24138;-83
2022/12/08 10:30:17;;;;;;;8.03;5.97;;;2.70;99.90;1.80;99389;;;;562437;249;24123;-79
2022/12/08 10:32:45;;;;;;;6.67;4.90;;;2.70;99.90;1.90;99399;;;;575123;249;25134;-72
2022/12/08 10:35:13;;;;;;;11.47;5.07;;;2.70;99.90;1.90;99380;;;;562394;249;24159;-72
2022/12/08 10:37:41;;;;;;;7.67;4.53;;;2.70;99.90;1.80;99388;;;;562630;249;24099;-73
2022/12/08 10:40:09;;;;;;;6.57;5.27;;;2.60;99.90;1.80;99382;;;;561047;249;24139;-76
2022/12/08 10:42:41;;;;;;;8.43;5.23;;;2.60;99.90;1.70;99376;;;;566481;249;24128;-78
2022/12/08 10:45:08;;;;;;;7.37;5.67;;;2.60;99.90;1.70;99378;;;;561464;249;24098;-72
2022/12/08 10:47:37;;;;;;;11.30;5.63;;;2.60;99.90;1.80;99376;;;;566165;249;24159;-81
2022/12/08 10:50:31;;;;;;;10.02;7.30;;;2.60;99.90;1.80;99374;;;;556364;249;35315;-73
2022/12/08 10:53:02;;;;;;;6.40;3.70;;;2.60;99.90;1.80;99378;;;;567265;249;24107;-83
2022/12/08 10:55:30;;;;;;;5.90;4.23;;;2.70;99.90;1.90;99378;;;;563774;249;24158;-73
2022/12/08 10:57:58;;;;;;;5.63;4.13;;;2.70;99.90;1.90;99378;;;;563466;250;24082;-79
2022/12/08 11:00:27;;;;;;;8.07;5.28;;;2.70;99.90;1.90;99374;;;;564881;248;35221;-75
2022/12/08 11:02:56;;;;;;;6.33;4.10;;;2.80;99.90;2.00;99376;;;;579549;247;24201;-81
2022/12/08 11:05:23;;;;;;;7.60;4.07;;;2.80;99.90;2.10;99381;;;;570156;247;24063;-79
2022/12/08 11:07:57;;;;;;;8.60;3.80;;;2.90;99.90;2.20;99381;;;;578349;248;24143;-76
2022/12/08 11:10:25;;;;;;;13.10;4.50;;;3.00;99.90;2.30;99379;;;;555124;252;24217;-72
2022/12/08 11:12:56;;;;;;;5.43;4.00;;;3.10;99.90;2.30;99380;;;;544702;257;24188;-80
2022/12/08 11:15:24;;;;;;;7.60;3.23;;;3.10;99.90;2.30;99376;;;;564277;246;24118;-82
2022/12/08 11:17:50;;;;;;;6.90;5.10;;;3.20;99.90;2.30;99362;;;;557811;252;24105;-83
2022/12/08 11:20:19;;;;;;;8.17;3.83;;;3.10;99.90;2.20;99365;;;;568745;252;24140;-84
2022/12/08 11:22:53;;;;;;;8.23;3.43;;;3.10;99.90;2.10;99360;;;;546885;253;24170;-74
2022/12/08 11:25:24;;;;;;;7.17;4.07;;;3.00;99.90;2.10;99353;;;;569853;241;24138;-82
2022/12/08 11:27:52;;;;;;;8.37;5.90;;;3.00;99.90;2.10;99358;;;;575622;249;24104;-84
2022/12/08 11:30:23;;;;;;;14.17;9.07;;;2.90;99.90;2.00;99364;;;;561398;252;24122;-82
2022/12/08 11:33:21;;;;;;;10.23;8.17;;;2.90;99.90;2.00;99366;;;;571443;250;24142;-83
2022/12/08 11:36:00;;;;;;;8.07;7.13;;;2.80;99.90;1.90;99351;;;;563514;250;24098;-76
2022/12/08 11:38:25;;;;;;;14.93;7.33;;;2.80;99.90;1.90;99353;;;;576169;247;24135;-77
2022/12/08 11:41:05;;;;;;;9.20;6.60;;;2.70;99.90;1.80;99343;;;;580931;247;24125;-75
2022/12/08 11:43:59;;;;;;;10.60;7.77;;;2.70;99.90;1.70;99350;;;;572243;247;24118;-75
2022/12/08 11:46:27;;;;;;;10.73;8.13;;;2.60;99.90;1.60;99347;;;;572726;247;24108;-79
2022/12/08 11:49:12;;;;;;;10.10;7.40;;;2.40;99.90;1.50;99338;;;;572020;247;24089;-77